createdAt,value
2018-12-15T00:02:14.539Z,65.55
2018-12-15T00:07:07.961Z,65.90
2018-12-15T00:12:01.254Z,65.68
2018-12-15T00:16:54.551Z,65.82
2018-12-15T00:21:47.840Z,66.12
2018-12-15T00:26:41.170Z,65.70
2018-12-15T00:47:49.270Z,65.90
2018-12-15T00:52:42.552Z,66.50
2018-12-15T00:57:35.862Z,66.19
2018-12-15T01:02:29.151Z,66.23
2018-12-15T01:07:22.435Z,66.41
2018-12-15T01:12:15.771Z,66.26
2018-12-15T01:17:09.175Z,65.95
2018-12-15T01:22:02.463Z,66.16
2018-12-15T01:26:55.759Z,65.96
2018-12-15T01:48:02.802Z,65.21
2018-12-15T01:52:56.091Z,65.21
2018-12-15T01:57:49.380Z,66.10
2018-12-15T02:02:42.658Z,64.80
2018-12-15T02:07:36.014Z,64.32
2018-12-15T02:12:29.298Z,64.68
2018-12-15T02:17:22.566Z,65.07
2018-12-15T02:22:15.892Z,64.75
2018-12-15T02:27:09.321Z,64.48
2018-12-15T02:48:17.244Z,64.83
2018-12-15T02:53:10.547Z,64.83
2018-12-15T02:58:03.890Z,64.42
2018-12-15T03:02:57.340Z,64.15
2018-12-15T03:07:50.631Z,65.14
2018-12-15T03:12:43.934Z,65.14
2018-12-15T03:17:37.211Z,64.59
2018-12-15T03:22:30.486Z,64.49
2018-12-15T03:27:23.959Z,64.84
2018-12-15T03:48:31.379Z,65.12
2018-12-15T03:53:24.701Z,64.43
2018-12-15T03:58:18.004Z,64.74
2018-12-15T04:03:11.299Z,64.35
2018-12-15T04:08:04.655Z,64.46
2018-12-15T04:12:58.105Z,64.81
2018-12-15T04:17:51.412Z,65.09
2018-12-15T04:22:44.725Z,65.06
2018-12-15T04:27:38.212Z,64.67
2018-12-15T04:48:45.811Z,65.47
2018-12-15T04:53:39.088Z,64.81
2018-12-15T04:58:32.368Z,64.26
2018-12-15T05:03:25.668Z,65.27
2018-12-15T05:08:18.961Z,65.29
2018-12-15T05:13:12.254Z,65.02
2018-12-15T05:18:05.543Z,64.28
2018-12-15T05:22:58.937Z,64.85
2018-12-15T05:27:52.225Z,64.91
2018-12-15T05:48:59.753Z,64.47
2018-12-15T05:53:53.036Z,63.67
2018-12-15T05:58:46.325Z,63.06
2018-12-15T06:03:39.628Z,63.67
2018-12-15T06:08:32.918Z,63.77
2018-12-15T06:13:26.221Z,63.83
2018-12-15T06:18:19.528Z,64.42
2018-12-15T06:23:12.865Z,64.03
2018-12-15T06:28:06.167Z,62.44
2018-12-15T06:49:13.898Z,63.46
2018-12-15T06:54:07.182Z,63.09
2018-12-15T06:59:00.459Z,63.30
2018-12-15T07:03:53.746Z,62.55
2018-12-15T07:08:47.049Z,63.43
2018-12-15T07:13:40.430Z,63.63
2018-12-15T07:18:33.735Z,63.88
2018-12-15T07:23:27.015Z,64.72
2018-12-15T07:28:20.373Z,64.03
2018-12-15T07:49:28.712Z,63.77
2018-12-15T07:54:22.006Z,63.89
2018-12-15T07:59:15.332Z,64.94
2018-12-15T08:04:08.611Z,65.40
2018-12-15T08:09:01.960Z,64.91
2018-12-15T08:19:08.094Z,65.45
2018-12-15T08:24:01.388Z,64.73
2018-12-15T08:28:54.667Z,64.62
2018-12-15T08:33:47.970Z,64.58
2018-12-15T08:54:55.206Z,64.58
2018-12-15T08:59:48.498Z,65.11
2018-12-15T09:04:41.861Z,65.09
2018-12-15T09:09:35.163Z,64.63
2018-12-15T09:14:28.670Z,64.45
2018-12-15T09:19:22.018Z,64.15
2018-12-15T09:24:15.391Z,63.78
2018-12-15T09:29:08.848Z,64.44
2018-12-15T09:50:16.037Z,63.32
2018-12-15T09:55:09.408Z,63.93
2018-12-15T10:00:02.814Z,61.96
2018-12-15T10:04:56.163Z,62.28
2018-12-15T10:09:49.470Z,61.84
2018-12-15T10:14:42.747Z,62.43
2018-12-15T10:19:36.071Z,62.85
2018-12-15T10:24:29.335Z,61.07
2018-12-15T10:34:51.822Z,60.79
2018-12-15T10:39:45.125Z,60.15
2018-12-15T10:44:38.424Z,60.39
2018-12-15T10:49:31.756Z,60.11
2018-12-15T11:10:39.636Z,61.34
2018-12-15T11:15:32.976Z,61.58
2018-12-15T11:20:26.355Z,60.40
2018-12-15T11:25:19.736Z,59.51
2018-12-15T11:30:13.011Z,60.17
2018-12-15T11:51:21.128Z,60.05
2018-12-15T12:01:22.579Z,60.12
2018-12-15T12:06:16.022Z,59.61
2018-12-15T12:11:09.332Z,59.53
2018-12-15T12:16:02.775Z,58.65
2018-12-15T12:37:10.551Z,61.76
2018-12-15T12:42:03.843Z,60.90
2018-12-15T12:46:57.163Z,61.01
2018-12-15T12:51:50.460Z,60.93
2018-12-15T12:56:44.065Z,61.27
2018-12-15T13:01:37.361Z,60.51
2018-12-15T13:06:30.643Z,60.31
2018-12-15T13:11:23.931Z,60.40
2018-12-15T13:16:17.260Z,60.44
2018-12-15T13:37:24.486Z,60.98
2018-12-15T13:42:17.871Z,61.19
2018-12-15T13:47:11.255Z,61.31
2018-12-15T13:52:04.958Z,61.97
2018-12-15T13:56:58.249Z,61.75
2018-12-15T14:01:51.522Z,61.56
2018-12-15T14:06:44.819Z,60.74
2018-12-15T14:11:38.159Z,60.94
2018-12-15T14:16:31.467Z,60.66
2018-12-15T14:21:24.819Z,60.73
2018-12-15T14:42:31.945Z,59.41
2018-12-15T14:47:25.276Z,60.01
2018-12-15T14:52:18.614Z,60.06
2018-12-15T14:57:11.987Z,60.59
2018-12-15T15:02:05.479Z,60.75
2018-12-15T15:23:13.249Z,61.09
2018-12-15T15:28:06.620Z,62.18
2018-12-15T15:32:59.926Z,62.63
2018-12-15T15:37:53.202Z,63.01
2018-12-15T15:42:46.484Z,64.00
2018-12-15T15:58:30.001Z,65.97
2018-12-15T16:03:23.273Z,65.21
2018-12-15T16:08:16.562Z,66.05
2018-12-15T16:13:09.867Z,65.62
2018-12-15T16:34:17.509Z,64.87
2018-12-15T16:39:10.820Z,65.33
2018-12-15T16:44:04.330Z,64.61
2018-12-15T16:48:57.623Z,65.39
2018-12-15T16:53:50.902Z,65.90
2018-12-15T16:58:44.193Z,66.01
2018-12-15T17:03:37.500Z,65.75
2018-12-15T17:08:30.841Z,66.47
2018-12-15T17:13:24.139Z,67.10
2018-12-15T17:34:31.719Z,66.56
2018-12-15T17:39:25.354Z,67.26
2018-12-15T17:44:18.661Z,68.13
2018-12-15T17:49:11.953Z,68.00
2018-12-15T17:54:05.247Z,69.52
2018-12-15T17:58:58.538Z,68.53
2018-12-15T18:03:51.941Z,69.87
2018-12-15T18:08:45.230Z,69.81
2018-12-15T18:13:38.569Z,70.65
2018-12-15T18:34:46.524Z,72.62
2018-12-15T18:39:39.822Z,72.61
2018-12-15T18:44:33.126Z,72.18
2018-12-15T18:49:26.469Z,73.25
2018-12-15T18:54:19.783Z,73.37
2018-12-15T18:59:13.282Z,74.39
2018-12-15T19:04:06.637Z,73.43
2018-12-15T19:09:03.985Z,72.94
2018-12-15T19:13:55.243Z,73.64
2018-12-15T19:35:03.593Z,74.09
2018-12-15T19:39:56.906Z,74.28
2018-12-15T19:44:50.257Z,74.42
2018-12-15T19:49:43.553Z,73.79
2018-12-15T19:54:36.910Z,74.25
2018-12-15T19:59:30.217Z,75.54
2018-12-15T20:04:23.499Z,75.24
2018-12-15T20:09:16.791Z,76.26
2018-12-15T20:14:10.091Z,75.79
2018-12-15T20:35:18.246Z,75.35
2018-12-15T20:40:11.683Z,75.08
2018-12-15T20:45:05.952Z,76.33
2018-12-15T20:49:59.271Z,75.53
2018-12-15T20:54:52.592Z,76.77
2018-12-15T20:59:45.890Z,76.24
2018-12-15T21:04:39.197Z,75.48
2018-12-15T21:09:32.468Z,75.92
2018-12-15T21:14:25.772Z,76.24
2018-12-15T21:35:33.665Z,76.55
2018-12-15T21:40:27.021Z,76.50
2018-12-15T21:45:20.416Z,76.18
2018-12-15T21:50:13.745Z,76.58
2018-12-15T21:55:07.180Z,76.39
2018-12-15T22:00:00.490Z,75.08
2018-12-15T22:04:53.826Z,74.26
2018-12-15T22:09:47.130Z,73.63
2018-12-15T22:14:40.502Z,73.06
2018-12-15T22:35:48.855Z,72.43
2018-12-15T22:40:42.159Z,73.41
2018-12-15T22:45:35.438Z,72.85
2018-12-15T22:50:28.763Z,73.53
2018-12-15T22:55:22.152Z,73.13
2018-12-15T23:00:15.627Z,73.63
2018-12-15T23:05:09.045Z,73.49
2018-12-15T23:10:02.400Z,73.89
2018-12-15T23:14:55.704Z,72.88
2018-12-15T23:36:03.516Z,72.96
2018-12-15T23:40:56.867Z,71.96
2018-12-15T23:45:50.154Z,71.00
2018-12-15T23:50:43.503Z,70.91
2018-12-15T23:55:36.798Z,71.69
